Glenburnie, Maryland
Current Conditions -  °F | °C
As of 3:54 PM on Sunday 21 Dec 2014 (Local Time) from KBWI Reporting Station
Few Clouds Few Clouds  
Wind Chill:   Ceiling: Unl
Heat Index:   Visibility: 10mi
Dew Point: -5°   Wind: 3mph
Humidity: 49%   Direction: 270°W
Pressure: 30.27"   Gusts: NA
Location:  39.1648°N, 76.6418°W
Report Text: KBWI 212054Z 27003KT 10SM FEW250 05/M05 A3027 RMK AO2 SLP253 T00501050 56013
Loading
Personal Weather Stations






























Interactive Weather Map New forecast layout! Learn more

10-Day Weather Forecast

Advertisements
Track Severe Weather on mobile